Terminal Aerodrome Forecast
Issued by NWS Grand Forks, ND

Home | Current Version | Previous Version | Text Only | Print | Product List | Glossary Off
Versions: 1 2 3 4 5 6 7 8 9 10 11 12 13 14 15 16

141
FTUS43 KFGF 291122
TAFFAR
TAF
KFAR 291122Z 2912/3012 29004KT P6SM BKN025
      TEMPO 2912/2915 BKN015
     FM291500 29008KT P6SM SCT025
      TEMPO 2915/2917 BKN025
     FM292000 30010KT P6SM SCT150=

USA.gov is the U.S. government's official web portal to all federal, state and local government web resources and services.